Fresno, CA (93650)

2:02 PM PDT on July 26, 2016 (GMT -0700)
Old Fig Garden | | Change Station

Elev 331 ft 36.79 °N, 119.80 °W | Updated 11 minutes ago

Partly Cloudy
Partly Cloudy
102.9 °F
Feels Like 104 °F
N
1.7
Wind Variable Wind from West

Today
High -- | Low -- °F
--% Chance of Precip.
Yesterday
High -- | Low -- °F
Precip. -- in
Pressure 29.83 in
Visibility 9.0 miles
Clouds Few 11000 ft
Heat Index 104 °F
Dew Point 59 °F
Humidity 24%
Rainfall 0.00 in
Snow Depth Not available.
6:00 AM 8:10 PM
Waning Gibbous, 51% visible
METAR KFAT 262053Z 35005KT 9SM FEW110 38/12 A2984 RMK AO2 SLP099 FEW CU OMTNS HZ FU DSNT N-E-SE T03830117 58016
Pressure 29.83 in
Visibility 9.0 miles
Clouds Few 11000 ft
Heat Index 104 °F
Dew Point 59 °F
Humidity 24%
Rainfall 0.00 in
Snow Depth Not available.
6:00 AM 8:10 PM
Waning Gibbous, 51% visible
METAR KFAT 262053Z 35005KT 9SM FEW110 38/12 A2984 RMK AO2 SLP099 FEW CU OMTNS HZ FU DSNT N-E-SE T03830117 58016

10-Day Weather Forecast

Almanac

Astronomy

Jul. 26, 2016 Rise Set
Actual Time
Civil Twilight
Nautical Twilight
Astronomical Twilight
Moon
Length of Visible Light
Length of Day
Tomorrow will be .
, % of the Moon is Illuminated

Today's Extremes

State Highs State Lows

Community

WunderPhotos

Upload Photos

1,927,688 photos uploaded!

WunderBlog® & News

Nearby

Air Quality

  Air Quality AQ Index Pollutant
Not available.

Snow Depth

Station Depth Elevation

Earthquake Activity

City Distance Mag. Time & Date
Minimum magnitude displayed is 2.5.

Coastal Water Temperatures

Place Temperature

Stations

Nearby Weather Stations

Station Location Temp. Windchill Dew Point Humidity Wind Precip. Elev Updated Type
                   

Watches & Warnings

There are currently no watches in effect.